Time;durP1;ratioP1;P1;durP2;ratioP2;P2;SDS_P1;SDS_P2;PMS_P1;PMS_P2;Temp;Humidity;BMP_temperature;BMP_pressure;BME280_temperature;BME280_humidity;BME280_pressure;Samples;Min_cycle;Max_cycle;Signal;HPM_P1;HPM_P2
2022/01/28 00:01:35;;;;;;;11.82;5.22;;;;;;;2.36;100.00;97790.97;4362030;32;20085;-73
2022/01/28 00:04:12;;;;;;;12.45;4.60;;;;;;;2.33;100.00;97778.13;4352337;33;20076;-73
2022/01/28 00:06:46;;;;;;;3.97;3.37;;;;;;;2.16;100.00;97736.28;4353762;33;20040;-72
2022/01/28 00:09:13;;;;;;;4.45;3.62;;;;;;;2.32;100.00;97797.78;4352039;33;20137;-73
2022/01/28 00:11:40;;;;;;;8.15;3.92;;;;;;;2.05;100.00;97731.75;4352719;32;20032;-72
2022/01/28 00:14:25;;;;;;;7.00;3.00;;;;;;;2.17;100.00;97774.28;4411794;32;20079;-72
2022/01/28 00:38:48;;;;;;;5.22;2.70;;;;;;;2.10;100.00;97737.19;4414726;32;20043;-73
2022/01/28 00:41:15;;;;;;;9.77;3.97;;;;;;;2.36;100.00;97780.34;4415605;32;20038;-73
2022/01/28 00:43:42;;;;;;;8.52;3.30;;;;;;;2.28;100.00;97739.00;4412136;32;20043;-73
2022/01/28 00:46:09;;;;;;;5.32;2.87;;;;;;;2.31;100.00;97743.03;4400646;32;20038;-77
2022/01/28 00:48:35;;;;;;;9.77;4.07;;;;;;;2.18;100.00;97728.91;4401184;32;20034;-73
2022/01/28 00:51:02;;;;;;;6.90;3.10;;;;;;;2.20;100.00;97746.47;4415077;32;20052;-73
2022/01/28 00:53:29;;;;;;;3.25;2.67;;;;;;;1.97;100.00;97697.56;4414291;32;20374;-73
2022/01/28 00:55:57;;;;;;;4.43;2.95;;;;;;;2.15;100.00;97734.69;4415799;32;20057;-73
2022/01/28 00:58:24;;;;;;;3.25;2.28;;;;;;;1.82;100.00;97671.47;4414310;32;20031;-72
2022/01/28 01:00:51;;;;;;;8.88;3.17;;;;;;;1.89;100.00;97704.00;4428530;32;20042;-73
2022/01/28 01:03:17;;;;;;;3.25;2.20;;;;;;;2.30;100.00;97725.50;4430927;32;20067;-72
2022/01/28 01:05:44;;;;;;;5.35;2.72;;;;;;;2.26;100.00;97729.63;4427443;32;20370;-71
2022/01/28 01:08:11;;;;;;;3.28;2.15;;;;;;;2.04;100.00;97669.06;4408061;32;20046;-73
2022/01/28 01:10:38;;;;;;;3.50;1.95;;;;;;;2.24;100.00;97708.59;4416989;32;20233;-72
2022/01/28 01:13:04;;;;;;;2.10;1.75;;;;;;;2.08;100.00;97718.03;4415696;32;20027;-73
2022/01/28 01:15:39;;;;;;;4.72;2.47;;;;;;;2.04;100.00;97748.72;4414970;32;20046;-75
2022/01/28 01:18:14;;;;;;;17.75;3.40;;;;;;;1.97;100.00;97748.00;4415151;32;20072;-76
2022/01/28 01:23:14;;;;;;;12.02;2.92;;;;;;;1.85;100.00;97718.78;4415138;32;20080;-73
2022/01/28 01:25:54;;;;;;;8.90;2.78;;;;;;;1.53;100.00;97726.12;4422853;32;20064;-72
2022/01/28 01:28:23;;;;;;;5.57;2.08;;;;;;;1.31;100.00;97611.75;4428071;32;20050;-72
2022/01/28 01:30:50;;;;;;;6.18;2.12;;;;;;;1.79;100.00;97682.53;4425479;32;20063;-72
2022/01/28 01:33:18;;;;;;;10.48;2.37;;;;;;;1.72;100.00;97661.37;4428949;32;20041;-72
2022/01/28 01:35:45;;;;;;;3.78;1.45;;;;;;;1.96;100.00;97730.47;4430398;32;20038;-73
2022/01/28 01:38:12;;;;;;;9.27;2.10;;;;;;;1.91;100.00;97704.59;4404971;32;20044;-75
2022/01/28 01:40:51;;;;;;;4.87;1.55;;;;;;;1.92;100.00;97734.63;4349698;33;20406;-72
2022/01/28 01:43:32;;;;;;;9.60;1.83;;;;;;;1.90;100.00;97716.25;4352926;33;20044;-71
2022/01/28 01:53:59;;;;;;;4.75;2.10;;;;;;;1.95;100.00;97699.66;4352467;33;20051;-72
2022/01/28 01:56:27;;;;;;;1.83;1.08;;;;;;;2.06;100.00;97674.97;4398430;32;20054;-71
2022/01/28 01:58:55;;;;;;;7.50;1.95;;;;;;;1.94;100.00;97669.63;4352752;33;20469;-72
2022/01/28 02:01:22;;;;;;;3.80;1.35;;;;;;;1.88;100.00;97696.28;4347585;32;20126;-75
2022/01/28 02:03:48;;;;;;;7.12;1.45;;;;;;;1.31;100.00;97578.09;4353707;33;20052;-72
2022/01/28 02:06:19;;;;;;;7.07;1.95;;;;;;;1.99;100.00;97666.28;4354632;33;20095;-72
2022/01/28 02:08:46;;;;;;;6.10;2.12;;;;;;;1.60;100.00;97634.00;4405832;32;20043;-72
2022/01/28 02:11:13;;;;;;;5.70;2.50;;;;;;;1.90;100.00;97662.34;4406483;32;20061;-72
2022/01/28 02:13:41;;;;;;;4.68;1.48;;;;;;;1.90;100.00;97676.44;4353563;33;20048;-76
2022/01/28 02:16:08;;;;;;;7.90;1.48;;;;;;;1.79;100.00;97648.81;4410445;32;20365;-72
2022/01/28 02:18:34;;;;;;;8.73;1.83;;;;;;;1.47;100.00;97613.78;4354987;33;20407;-72
2022/01/28 02:21:07;;;;;;;12.65;1.80;;;;;;;1.52;100.00;97613.09;4403152;32;20073;-72
2022/01/28 02:23:35;;;;;;;1.48;1.10;;;;;;;1.56;100.00;97657.50;4405137;32;20134;-75
2022/01/28 02:26:03;;;;;;;11.18;1.75;;;;;;;1.34;100.00;97606.81;4354455;33;20366;-72
2022/01/28 02:28:34;;;;;;;8.23;1.55;;;;;;;1.61;100.00;97680.72;4355214;33;20073;-73
2022/01/28 02:31:05;;;;;;;6.43;1.70;;;;;;;1.36;100.00;97631.25;4348819;33;20418;-74
2022/01/28 02:33:31;;;;;;;6.12;1.48;;;;;;;1.42;100.00;97651.59;4353173;33;20077;-72
2022/01/28 02:36:03;;;;;;;6.57;1.30;;;;;;;1.28;100.00;97671.34;4354792;33;20068;-74
2022/01/28 02:38:31;;;;;;;2.53;1.20;;;;;;;1.23;100.00;97685.28;4419453;32;20064;-77
2022/01/28 02:41:00;;;;;;;5.43;1.33;;;;;;;1.13;100.00;97706.19;4448770;32;20033;-75
2022/01/28 02:43:37;;;;;;;11.68;2.35;;;;;;;1.03;100.00;97682.03;4447052;32;20038;-76
2022/01/28 02:46:15;;;;;;;3.33;1.70;;;;;;;1.03;100.00;97664.28;4428569;32;20461;-77
2022/01/28 02:48:53;;;;;;;4.75;1.15;;;;;;;1.03;100.00;97676.75;4434550;32;20049;-76
2022/01/28 02:51:22;;;;;;;5.50;1.73;;;;;;;0.89;100.00;97642.44;4418117;32;20339;-76
2022/01/28 02:53:59;;;;;;;6.22;1.55;;;;;;;0.92;100.00;97659.72;4432791;32;20465;-77
2022/01/28 02:56:40;;;;;;;8.60;2.20;;;;;;;0.84;100.00;97649.41;4433139;32;20038;-77
2022/01/28 02:59:07;;;;;;;9.38;2.22;;;;;;;0.85;100.00;97640.44;4432438;32;20038;-78
2022/01/28 03:01:34;;;;;;;2.03;1.10;;;;;;;0.91;100.00;97647.53;4433175;32;20052;-77
2022/01/28 03:04:03;;;;;;;4.47;1.67;;;;;;;0.90;100.00;97677.69;4419180;32;20030;-77
2022/01/28 03:06:29;;;;;;;14.90;3.00;;;;;;;0.69;100.00;97626.75;4441571;32;20038;-78
2022/01/28 03:08:59;;;;;;;3.20;2.10;;;;;;;0.99;100.00;97647.22;4447774;32;20052;-79
2022/01/28 03:11:42;;;;;;;2.05;1.50;;;;;;;0.85;100.00;97646.56;4442033;32;20064;-78
2022/01/28 03:16:56;;;;;;;4.00;1.90;;;;;;;0.97;100.00;97665.16;4451936;32;20102;-78
2022/01/28 03:19:43;;;;;;;4.20;1.87;;;;;;;0.83;100.00;97658.38;4447569;32;20033;-77
2022/01/28 03:22:10;;;;;;;11.12;2.67;;;;;;;0.79;100.00;97620.12;4438492;32;20042;-78
2022/01/28 03:24:37;;;;;;;5.07;2.05;;;;;;;0.97;100.00;97707.56;4429858;32;20060;-78
2022/01/28 03:27:10;;;;;;;7.68;2.17;;;;;;;0.76;100.00;97652.38;4431681;32;20080;-77
2022/01/28 03:29:44;;;;;;;12.15;1.92;;;;;;;1.02;100.00;97696.31;4432388;32;20078;-77
2022/01/28 03:32:10;;;;;;;5.32;1.95;;;;;;;0.86;100.00;97626.16;4418056;32;20043;-78
2022/01/28 03:34:37;;;;;;;6.07;2.12;;;;;;;1.04;100.00;97660.63;4415752;32;20066;-78
2022/01/28 03:37:07;;;;;;;10.27;2.15;;;;;;;0.87;100.00;97638.37;4418205;32;20088;-79
2022/01/28 03:39:33;;;;;;;3.25;1.70;;;;;;;0.98;100.00;97672.09;4434259;32;20029;-78
2022/01/28 03:42:00;;;;;;;7.18;3.17;;;;;;;1.02;100.00;97715.69;4431261;32;20063;-79
2022/01/28 03:44:26;;;;;;;6.37;2.15;;;;;;;0.56;100.00;97600.41;4428642;32;20052;-78
2022/01/28 03:46:53;;;;;;;9.70;2.78;;;;;;;0.68;100.00;97619.81;4430807;32;20079;-77
2022/01/28 03:49:19;;;;;;;5.70;2.22;;;;;;;0.95;100.00;97661.94;4431461;32;20042;-80
2022/01/28 03:51:46;;;;;;;5.40;3.87;;;;;;;0.86;100.00;97669.37;4431677;32;20101;-78
2022/01/28 03:54:12;;;;;;;6.65;4.50;;;;;;;0.44;100.00;97586.28;4429970;32;20052;-79
2022/01/28 03:56:39;;;;;;;5.85;3.10;;;;;;;0.80;100.00;97664.97;4441258;32;20105;-79
2022/01/28 03:59:05;;;;;;;5.85;3.95;;;;;;;0.46;100.00;97605.38;4446740;32;20318;-79
2022/01/28 04:01:36;;;;;;;11.18;4.80;;;;;;;0.50;100.00;97611.88;4439176;32;20461;-79
2022/01/28 04:12:30;;;;;;;3.40;3.08;;;;;;;1.03;100.00;97696.09;4446165;32;20049;-79
2022/01/28 04:17:42;;;;;;;4.37;2.55;;;;;;;1.14;100.00;97685.81;4442945;32;20033;-79
2022/01/28 04:20:09;;;;;;;9.88;4.18;;;;;;;1.02;100.00;97683.87;4431641;32;20147;-78
2022/01/28 04:22:36;;;;;;;3.60;2.85;;;;;;;1.19;100.00;97672.69;4430224;32;20424;-79
2022/01/28 04:25:03;;;;;;;3.62;2.17;;;;;;;1.20;100.00;97676.97;4417370;32;20356;-79
2022/01/28 04:27:30;;;;;;;10.15;3.10;;;;;;;1.26;100.00;97691.97;4417953;32;20055;-79
2022/01/28 04:29:56;;;;;;;5.28;2.12;;;;;;;0.85;100.00;97672.25;4416260;32;20027;-78
2022/01/28 04:32:25;;;;;;;9.27;3.50;;;;;;;1.33;100.00;97727.19;4431344;32;20046;-79
2022/01/28 04:34:53;;;;;;;4.68;2.80;;;;;;;1.36;100.00;97689.59;4441972;32;20059;-78
2022/01/28 04:37:30;;;;;;;4.53;1.42;;;;;;;1.34;100.00;97698.81;4431936;32;20043;-78
2022/01/28 04:40:11;;;;;;;4.60;1.25;;;;;;;1.38;100.00;97703.44;4432861;32;20049;-78
2022/01/28 04:45:26;;;;;;;3.85;1.10;;;;;;;1.46;100.00;97678.47;4443422;32;20096;-78
2022/01/28 05:01:06;;;;;;;4.93;1.80;;;;;;;0.99;100.00;97668.44;4431081;32;20432;-82
2022/01/28 05:04:03;;;;;;;6.82;2.97;;;;;;;0.86;100.00;97653.47;4432038;32;20054;-80
2022/01/28 05:28:19;;;;;;;4.03;1.17;;;;;;;1.25;100.00;97754.00;4430593;32;20351;-81
2022/01/28 05:30:46;;;;;;;7.97;1.37;;;;;;;1.38;100.00;97775.06;4417001;32;20045;-81
2022/01/28 05:33:12;;;;;;;7.20;1.67;;;;;;;1.39;100.00;97758.13;4431627;32;20146;-81
2022/01/28 05:35:39;;;;;;;7.78;1.73;;;;;;;1.42;100.00;97752.37;4430385;32;20038;-79
2022/01/28 05:38:05;;;;;;;12.88;2.25;;;;;;;1.44;100.00;97745.00;4432552;32;20043;-80
2022/01/28 05:40:32;;;;;;;9.48;1.83;;;;;;;1.16;100.00;97708.38;4432354;32;20042;-79
2022/01/28 05:42:59;;;;;;;5.12;1.83;;;;;;;1.09;100.00;97719.06;4449484;32;20068;-81
2022/01/28 05:45:25;;;;;;;12.90;1.80;;;;;;;1.42;100.00;97763.00;4440186;32;20031;-81
2022/01/28 05:47:51;;;;;;;13.68;2.58;;;;;;;1.23;100.00;97764.81;4433919;32;20034;-80
2022/01/28 05:50:18;;;;;;;4.12;1.73;;;;;;;1.35;100.00;97770.19;4434073;32;20440;-80
2022/01/28 05:52:45;;;;;;;10.57;2.45;;;;;;;1.42;100.00;97757.69;4429673;32;20062;-80
2022/01/28 05:55:12;;;;;;;8.55;1.77;;;;;;;1.29;100.00;97757.81;4437535;32;20320;-80
2022/01/28 05:57:38;;;;;;;9.32;2.65;;;;;;;1.16;100.00;97726.16;4448858;32;20033;-85
2022/01/28 06:00:06;;;;;;;12.80;2.22;;;;;;;1.39;100.00;97768.72;4438871;32;20118;-86
2022/01/28 06:02:33;;;;;;;5.72;2.10;;;;;;;1.47;100.00;97774.75;4430476;32;20030;-80
2022/01/28 06:05:00;;;;;;;15.45;2.83;;;;;;;1.33;100.00;97759.00;4429080;32;20038;-81
2022/01/28 06:07:26;;;;;;;3.45;1.65;;;;;;;1.36;100.00;97798.34;4433639;32;20275;-81
2022/01/28 06:09:52;;;;;;;4.12;1.65;;;;;;;1.20;100.00;97785.69;4432343;32;20042;-80
2022/01/28 06:12:20;;;;;;;11.32;2.45;;;;;;;0.79;100.00;97711.03;4432985;32;20064;-80
2022/01/28 06:14:46;;;;;;;14.98;2.65;;;;;;;1.18;100.00;97808.94;4427847;32;20097;-80
2022/01/28 06:17:13;;;;;;;21.42;2.47;;;;;;;0.81;100.00;97777.06;4429138;32;20030;-80
2022/01/28 06:19:40;;;;;;;5.03;1.80;;;;;;;0.92;100.00;97816.09;4433016;32;20046;-81
2022/01/28 06:22:06;;;;;;;13.55;1.95;;;;;;;0.91;100.00;97793.28;4433251;32;20030;-82
2022/01/28 06:24:33;;;;;;;14.18;2.42;;;;;;;0.95;100.00;97805.06;4432595;32;20052;-84
2022/01/28 06:27:00;;;;;;;9.63;2.40;;;;;;;0.89;100.00;97817.34;4426294;32;20382;-81
2022/01/28 06:29:26;;;;;;;6.75;1.83;;;;;;;0.84;100.00;97817.19;4433370;32;20335;-80
2022/01/28 06:31:52;;;;;;;3.90;1.35;;;;;;;0.77;100.00;97818.28;4426610;32;20050;-80
2022/01/28 06:34:19;;;;;;;9.27;3.00;;;;;;;0.61;100.00;97799.22;4434459;32;20033;-81
2022/01/28 06:36:45;;;;;;;12.18;2.30;;;;;;;0.64;100.00;97782.91;4432311;32;20030;-81
2022/01/28 06:39:12;;;;;;;12.90;2.28;;;;;;;0.84;100.00;97840.22;4415963;32;20018;-79
2022/01/28 06:41:39;;;;;;;8.90;1.75;;;;;;;0.87;100.00;97839.78;4432454;32;20050;-80
2022/01/28 06:44:06;;;;;;;12.35;2.45;;;;;;;0.86;100.00;97870.78;4435239;32;20034;-80
2022/01/28 06:46:32;;;;;;;5.62;2.05;;;;;;;0.74;100.00;97834.59;4435761;32;20030;-80
2022/01/28 06:48:59;;;;;;;7.32;2.42;;;;;;;0.78;100.00;97878.19;4442354;32;20031;-79
2022/01/28 06:51:25;;;;;;;10.02;3.28;;;;;;;0.78;100.00;97859.63;4429297;32;20073;-78
2022/01/28 06:53:52;;;;;;;15.85;2.22;;;;;;;0.71;100.00;97854.38;4432390;32;20939;-80
2022/01/28 06:56:19;;;;;;;11.77;2.17;;;;;;;0.76;100.00;97867.00;4433504;32;20046;-77
2022/01/28 06:58:45;;;;;;;5.95;2.03;;;;;;;0.64;100.00;97816.50;4434376;32;20085;-78
2022/01/28 07:01:12;;;;;;;7.82;2.20;;;;;;;0.93;100.00;97886.62;4433521;32;20034;-78
2022/01/28 07:03:39;;;;;;;10.43;2.65;;;;;;;0.95;100.00;97884.56;4430349;32;20059;-79
2022/01/28 07:06:05;;;;;;;9.15;2.22;;;;;;;0.97;100.00;97871.91;4434026;32;20092;-79
2022/01/28 07:08:31;;;;;;;5.97;1.60;;;;;;;0.66;100.00;97857.69;4432005;32;20465;-82
2022/01/28 07:10:58;;;;;;;9.73;1.65;;;;;;;0.69;100.00;97857.25;4431939;32;20038;-81
2022/01/28 07:13:25;;;;;;;13.82;2.22;;;;;;;1.02;100.00;97927.78;4421795;32;20083;-80
2022/01/28 07:15:52;;;;;;;8.85;1.40;;;;;;;0.94;100.00;97930.66;4429726;32;20505;-81
2022/01/28 07:18:20;;;;;;;10.27;1.98;;;;;;;1.03;100.00;97923.28;4424045;32;20064;-79
2022/01/28 07:20:46;;;;;;;7.82;1.42;;;;;;;0.71;100.00;97865.78;4439667;32;20056;-82
2022/01/28 07:23:12;;;;;;;4.43;1.60;;;;;;;1.00;100.00;97924.50;4442726;32;20041;-81
2022/01/28 07:25:39;;;;;;;7.07;1.60;;;;;;;0.71;100.00;97902.88;4435796;32;20045;-81
2022/01/28 07:28:06;;;;;;;4.03;1.87;;;;;;;0.58;100.00;97920.72;4423474;32;20046;-82
2022/01/28 07:30:32;;;;;;;11.82;1.83;;;;;;;0.98;100.00;97990.19;4432355;32;20427;-82
2022/01/28 07:33:01;;;;;;;5.25;1.95;;;;;;;0.99;100.00;97944.09;4431674;32;20037;-80
2022/01/28 07:35:27;;;;;;;14.30;2.10;;;;;;;0.82;100.00;97949.09;4432078;32;20042;-80
2022/01/28 07:37:54;;;;;;;26.05;2.87;;;;;;;0.77;100.00;97932.22;4445053;32;20187;-79
2022/01/28 07:40:21;;;;;;;7.18;2.33;;;;;;;0.91;100.00;97957.63;4435816;32;20230;-80
2022/01/28 07:42:47;;;;;;;5.22;2.65;;;;;;;0.44;100.00;97909.38;4418712;32;20079;-81
2022/01/28 07:45:14;;;;;;;8.13;1.15;;;;;;;0.85;100.00;98032.66;4422198;32;20027;-79
2022/01/28 07:47:43;;;;;;;8.63;2.65;;;;;;;0.89;100.00;98010.00;4442605;32;20042;-80
2022/01/28 07:50:12;;;;;;;7.37;1.33;;;;;;;0.89;100.00;98015.31;4446340;32;20437;-80
2022/01/28 07:52:39;;;;;;;4.68;1.50;;;;;;;0.75;100.00;97980.13;4446882;32;20030;-84
2022/01/28 07:55:07;;;;;;;3.67;1.15;;;;;;;0.78;100.00;98022.06;4429746;32;20066;-81
2022/01/28 07:57:34;;;;;;;5.22;1.85;;;;;;;0.52;100.00;97970.03;4432289;32;20428;-81
2022/01/28 08:00:01;;;;;;;3.45;1.60;;;;;;;0.74;100.00;98036.78;4440873;32;20052;-81
2022/01/28 08:02:28;;;;;;;2.35;1.30;;;;;;;0.69;100.00;98047.22;4430579;32;20071;-83
2022/01/28 08:04:54;;;;;;;5.62;0.93;;;;;;;0.37;100.00;98052.41;4431146;32;20060;-80
2022/01/28 08:07:22;;;;;;;9.65;2.30;;;;;;;0.56;100.00;98040.13;4431246;32;20412;-81
2022/01/28 08:09:48;;;;;;;8.15;1.80;;;;;;;0.23;100.00;97984.62;4425422;32;20053;-80
2022/01/28 08:12:15;;;;;;;1.20;1.15;;;;;;;0.62;100.00;98055.16;4422736;32;20409;-80
2022/01/28 08:14:42;;;;;;;4.75;2.10;;;;;;;0.59;100.00;98054.78;4432931;32;20426;-80
2022/01/28 08:17:10;;;;;;;3.42;1.10;;;;;;;0.64;100.00;98065.56;4426148;32;20029;-80
2022/01/28 08:19:37;;;;;;;7.97;2.10;;;;;;;0.38;100.00;98013.50;4421275;32;20060;-82
2022/01/28 08:22:04;;;;;;;2.25;1.48;;;;;;;0.47;100.00;98046.66;4430628;32;20173;-81
2022/01/28 08:24:31;;;;;;;6.35;2.62;;;;;;;0.70;100.00;98068.19;4429020;32;20054;-80
2022/01/28 08:26:57;;;;;;;3.83;1.33;;;;;;;0.70;100.00;98084.09;4423149;32;20070;-81
2022/01/28 08:29:24;;;;;;;3.20;1.87;;;;;;;0.69;100.00;98086.97;4431197;32;20388;-80
2022/01/28 08:31:50;;;;;;;5.90;2.78;;;;;;;0.64;100.00;98074.34;4430415;32;20044;-82
2022/01/28 08:34:17;;;;;;;5.62;1.55;;;;;;;0.54;100.00;98050.09;4439296;32;20067;-80
2022/01/28 08:36:44;;;;;;;7.65;2.30;;;;;;;0.53;100.00;98088.22;4436658;32;20035;-81
2022/01/28 08:39:11;;;;;;;9.07;2.28;;;;;;;0.79;100.00;98102.41;4429026;32;20046;-81
2022/01/28 08:41:40;;;;;;;8.93;2.25;;;;;;;0.86;100.00;98111.13;4429932;32;20034;-81
2022/01/28 08:44:06;;;;;;;3.80;2.05;;;;;;;0.88;100.00;98117.06;4429201;32;20435;-83
2022/01/28 08:46:33;;;;;;;15.52;3.08;;;;;;;0.88;100.00;98148.87;4429492;32;20066;-81
2022/01/28 08:48:59;;;;;;;10.88;2.55;;;;;;;0.88;100.00;98101.16;4431514;32;20281;-81
2022/01/28 08:51:26;;;;;;;9.02;2.83;;;;;;;0.91;100.00;98121.94;4415792;32;20038;-81
2022/01/28 08:53:54;;;;;;;10.90;2.80;;;;;;;0.97;100.00;98142.28;4417231;32;20039;-86
2022/01/28 08:56:21;;;;;;;10.30;3.42;;;;;;;0.90;100.00;98157.41;4430275;32;20071;-76
2022/01/28 08:58:47;;;;;;;2.42;1.70;;;;;;;0.92;100.00;98165.97;4427199;32;20068;-74
2022/01/28 09:01:14;;;;;;;5.75;2.62;;;;;;;0.66;100.00;98175.62;4420960;32;20085;-74
2022/01/28 09:03:41;;;;;;;2.90;1.33;;;;;;;0.40;100.00;98186.22;4430488;32;20046;-74
2022/01/28 09:06:07;;;;;;;2.92;1.75;;;;;;;-0.02;100.00;98150.19;4426187;32;20042;-75
2022/01/28 09:08:34;;;;;;;4.62;1.65;;;;;;;-0.06;100.00;98153.47;4438905;32;20045;-75
2022/01/28 09:11:30;;;;;;;3.50;1.67;;;;;;;0.17;100.00;98206.00;4438900;32;20038;-75
2022/01/28 09:13:48;;;;;;;5.07;2.17;;;;;;;0.14;100.00;98216.97;4440569;32;20101;-74
2022/01/28 09:16:18;;;;;;;0.60;0.60;;;;;;;0.17;100.00;98221.88;4436855;32;20086;-75
2022/01/28 09:18:51;;;;;;;2.22;1.10;;;;;;;-0.01;100.00;98235.69;4427323;32;20399;-75
2022/01/28 09:21:21;;;;;;;0.70;0.70;;;;;;;-0.30;100.00;98173.34;4436491;32;20061;-73
2022/01/28 09:23:57;;;;;;;1.05;0.93;;;;;;;-0.35;100.00;98186.34;4420528;32;20051;-73
2022/01/28 09:26:26;;;;;;;2.40;1.55;;;;;;;-0.40;100.00;98208.94;4431454;32;20075;-78
2022/01/28 09:28:53;;;;;;;2.97;1.73;;;;;;;-0.51;100.00;98193.66;4430821;32;20034;-74
2022/01/28 09:31:20;;;;;;;0.68;0.68;;;;;;;-0.23;100.00;98264.94;4429390;32;20050;-73
2022/01/28 09:33:49;;;;;;;1.25;0.93;;;;;;;-0.40;100.00;98259.22;4431458;32;20439;-76
2022/01/28 09:36:19;;;;;;;6.18;1.85;;;;;;;-0.35;100.00;98266.56;4430849;32;20030;-75
2022/01/28 09:38:55;;;;;;;1.48;0.82;;;;;;;-0.26;100.00;98259.25;4374501;32;20117;-74
2022/01/28 09:41:23;;;;;;;1.55;1.27;;;;;;;-0.25;100.00;98250.31;4367898;32;20990;-74
2022/01/28 09:44:00;;;;;;;10.93;1.80;;;;;;;-0.40;100.00;98227.47;4363910;32;20047;-74
2022/01/28 09:46:29;;;;;;;7.10;2.08;;;;;;;-0.47;100.00;98197.53;4397230;32;20394;-80
2022/01/28 09:48:57;;;;;;;3.20;1.60;;;;;;;0.11;100.00;98286.22;4373639;32;20073;-75
2022/01/28 09:51:25;;;;;;;1.17;0.60;;;;;;;0.25;100.00;98277.28;4387218;32;20372;-75
2022/01/28 09:53:52;;;;;;;8.32;2.17;;;;;;;0.29;100.00;98286.47;4394738;32;20376;-74
2022/01/28 09:56:19;;;;;;;5.18;2.33;;;;;;;0.41;100.00;98269.97;4397997;32;20606;-74
2022/01/28 09:58:45;;;;;;;7.30;2.20;;;;;;;0.18;100.00;98261.38;4363015;32;20531;-78
2022/01/28 10:01:16;;;;;;;7.30;1.77;;;;;;;0.11;100.00;98233.28;4365853;32;20435;-75
2022/01/28 10:03:45;;;;;;;5.30;2.05;;;;;;;0.52;100.00;98322.34;4365093;32;20083;-76
2022/01/28 10:06:12;;;;;;;15.73;2.50;;;;;;;0.39;100.00;98304.59;4363631;32;20047;-75
2022/01/28 10:08:39;;;;;;;10.95;2.87;;;;;;;0.64;100.00;98296.88;4388147;32;20388;-75
2022/01/28 10:11:15;;;;;;;4.07;1.67;;;;;;;0.72;100.00;98319.72;4351561;32;20040;-75
2022/01/28 10:13:54;;;;;;;5.50;2.12;;;;;;;0.70;100.00;98311.97;4358798;32;20089;-75
2022/01/28 10:16:27;;;;;;;6.37;2.00;;;;;;;0.82;100.00;98341.31;4359310;32;20106;-74
2022/01/28 10:18:56;;;;;;;9.98;2.28;;;;;;;0.61;100.00;98301.78;4351486;32;20047;-74
2022/01/28 10:21:25;;;;;;;8.35;2.75;;;;;;;0.85;100.00;98330.31;4352914;33;20039;-74
2022/01/28 10:24:11;;;;;;;5.20;2.50;;;;;;;0.94;100.00;98328.25;4406339;32;20039;-74
2022/01/28 10:26:43;;;;;;;11.90;2.67;;;;;;;0.87;100.00;98354.78;4367810;32;20055;-75
2022/01/28 10:29:14;;;;;;;5.60;2.33;;;;;;;0.95;100.00;98345.81;4401803;32;20101;-76
2022/01/28 10:31:48;;;;;;;7.47;2.42;;;;;;;0.99;100.00;98362.94;4407026;32;20043;-75
2022/01/28 10:34:38;;;;;;;7.22;2.05;;;;;;;0.82;100.00;98319.31;4358632;32;20043;-77
2022/01/28 10:37:15;;;;;;;5.18;2.22;;;;;;;1.19;100.00;98370.06;4368104;32;20047;-76
2022/01/28 10:39:42;;;;;;;7.60;2.85;;;;;;;1.20;100.00;98371.72;4370005;32;20441;-74
2022/01/28 10:42:10;;;;;;;4.28;2.35;;;;;;;1.08;100.00;98360.91;4361880;32;20043;-75
2022/01/28 10:45:04;;;;;;;5.45;2.80;;;;;;;0.88;100.00;98329.09;4362815;32;20055;-76
2022/01/28 10:47:39;;;;;;;1.42;1.33;;;;;;;1.23;100.00;98400.47;4360223;32;20035;-76
2022/01/28 10:50:15;;;;;;;10.88;1.90;;;;;;;1.21;100.00;98418.41;4360087;32;20111;-77
2022/01/28 10:52:42;;;;;;;3.12;1.83;;;;;;;1.05;100.00;98356.84;4394332;32;20474;-77
2022/01/28 10:55:16;;;;;;;2.75;1.83;;;;;;;1.21;100.00;98389.25;4354853;32;20051;-77
2022/01/28 10:58:00;;;;;;;7.30;2.05;;;;;;;1.30;100.00;98422.50;4408692;32;20039;-77
2022/01/28 11:00:48;;;;;;;4.60;2.37;;;;;;;1.26;100.00;98408.84;4393702;32;20044;-76
2022/01/28 11:03:18;;;;;;;3.45;2.03;;;;;;;1.36;100.00;98416.37;4415307;32;20078;-76
2022/01/28 11:05:45;;;;;;;7.72;2.87;;;;;;;1.33;100.00;98422.09;4361546;32;20949;-77
2022/01/28 11:08:14;;;;;;;5.82;2.45;;;;;;;1.35;100.00;98425.34;4351041;33;20698;-76
2022/01/28 11:10:42;;;;;;;7.00;2.65;;;;;;;1.32;100.00;98420.44;4355564;32;20070;-76
2022/01/28 11:13:09;;;;;;;9.90;4.00;;;;;;;1.12;100.00;98387.81;4359208;32;20100;-77
2022/01/28 11:15:36;;;;;;;8.80;3.42;;;;;;;1.12;100.00;98416.97;4401607;32;20052;-78
2022/01/28 11:18:07;;;;;;;6.53;2.80;;;;;;;1.36;100.00;98434.16;4353838;32;20146;-76
2022/01/28 11:20:49;;;;;;;4.78;2.00;;;;;;;1.43;100.00;98435.75;4402281;32;20052;-77
2022/01/28 11:23:41;;;;;;;2.87;1.75;;;;;;;1.45;100.00;98473.53;4355029;32;20095;-77
2022/01/28 11:26:29;;;;;;;1.75;1.33;;;;;;;1.45;100.00;98484.13;4429735;32;20439;-76
2022/01/28 11:29:02;;;;;;;8.45;2.83;;;;;;;1.44;100.00;98458.62;4405589;32;20070;-76
2022/01/28 11:31:50;;;;;;;2.25;1.67;;;;;;;1.47;100.00;98454.75;4353299;33;20082;-76
2022/01/28 11:34:24;;;;;;;6.12;2.30;;;;;;;1.16;100.00;98455.34;4379196;32;20063;-76
2022/01/28 11:36:53;;;;;;;5.00;2.28;;;;;;;1.43;100.00;98449.00;4353081;33;20077;-75
2022/01/28 11:39:32;;;;;;;1.45;1.20;;;;;;;1.48;100.00;98476.78;4385664;32;20058;-76
2022/01/28 11:42:27;;;;;;;2.67;1.67;;;;;;;1.40;100.00;98462.69;4412455;32;20028;-76
2022/01/28 11:44:57;;;;;;;5.07;1.90;;;;;;;1.44;100.00;98471.88;4413127;32;20057;-75
2022/01/28 11:47:26;;;;;;;4.50;1.67;;;;;;;1.19;100.00;98441.69;4353328;32;20210;-76
2022/01/28 11:49:55;;;;;;;7.40;2.60;;;;;;;1.16;100.00;98448.19;4352790;32;20039;-76
2022/01/28 11:52:22;;;;;;;4.62;2.53;;;;;;;1.44;100.00;98487.81;4382149;32;20041;-76
2022/01/28 11:54:49;;;;;;;4.87;2.00;;;;;;;1.43;100.00;98507.37;4365830;32;20028;-76
2022/01/28 11:57:16;;;;;;;6.00;2.20;;;;;;;1.53;100.00;98495.56;4359150;32;20463;-76
2022/01/28 11:59:45;;;;;;;4.05;2.22;;;;;;;1.57;100.00;98502.09;4359130;32;20057;-77
2022/01/28 12:02:14;;;;;;;4.75;2.05;;;;;;;1.55;100.00;98498.84;4359253;32;20399;-76
2022/01/28 12:04:43;;;;;;;5.70;1.83;;;;;;;1.16;100.00;98389.03;4393710;32;20058;-76
2022/01/28 12:07:20;;;;;;;5.30;1.75;;;;;;;2.24;100.00;98486.06;4410426;32;20082;-76
2022/01/28 12:09:52;;;;;;;3.80;2.50;;;;;;;2.29;100.00;98488.91;4358304;32;20394;-75
2022/01/28 12:12:49;;;;;;;6.60;2.20;;;;;;;2.64;100.00;98496.56;4358733;32;20036;-75
2022/01/28 12:15:19;;;;;;;6.62;2.60;;;;;;;2.44;100.00;98486.81;4354489;32;20069;-75
2022/01/28 12:17:50;;;;;;;3.83;2.05;;;;;;;2.06;100.00;98447.72;4360956;32;20039;-75
2022/01/28 12:20:19;;;;;;;1.20;1.12;;;;;;;2.20;100.00;98527.34;4360463;32;20040;-76
2022/01/28 12:23:05;;;;;;;8.07;2.20;;;;;;;2.10;100.00;98517.97;4358639;32;20043;-78
2022/01/28 12:25:58;;;;;;;7.50;2.50;;;;;;;1.97;100.00;98523.31;4360878;32;20101;-77
2022/01/28 12:28:31;;;;;;;2.80;1.50;;;;;;;2.00;100.00;98517.59;4358977;32;20082;-76
2022/01/28 12:31:03;;;;;;;4.90;2.47;;;;;;;1.88;100.00;98551.06;4398005;32;20385;-76
2022/01/28 12:33:44;;;;;;;1.75;1.30;;;;;;;1.54;100.00;98486.59;4356921;32;20051;-76
2022/01/28 12:36:21;;;;;;;4.18;2.08;;;;;;;1.55;100.00;98534.12;4354107;32;20084;-77
2022/01/28 12:41:25;;;;;;;2.75;1.12;;;;;;;1.38;100.00;98562.88;4353242;33;20062;-77
2022/01/28 12:43:52;;;;;;;4.65;2.50;;;;;;;1.25;100.00;98558.38;4352511;32;20058;-76
2022/01/28 12:46:19;;;;;;;4.30;1.90;;;;;;;0.93;100.00;98506.91;4357416;32;20043;-77
2022/01/28 12:48:51;;;;;;;4.45;2.00;;;;;;;0.89;100.00;98516.25;4360492;32;20100;-75
2022/01/28 12:51:21;;;;;;;2.78;1.60;;;;;;;0.50;100.00;98517.78;4357230;32;20043;-76
2022/01/28 12:53:54;;;;;;;1.80;1.10;;;;;;;0.66;100.00;98572.25;4379455;32;20040;-75
2022/01/28 12:56:34;;;;;;;2.85;1.05;;;;;;;0.52;100.00;98600.50;4369900;32;20108;-75
2022/01/28 12:59:02;;;;;;;3.50;1.87;;;;;;;-0.10;100.00;98522.72;4358271;32;20077;-77
2022/01/28 13:01:30;;;;;;;3.60;2.25;;;;;;;0.04;100.00;98535.03;4358243;32;20447;-76
2022/01/28 13:04:12;;;;;;;7.32;1.95;;;;;;;0.44;100.00;98598.03;4358745;32;20309;-75
2022/01/28 13:06:53;;;;;;;2.45;1.67;;;;;;;0.28;100.00;98548.81;4358547;32;20039;-76
2022/01/28 13:09:23;;;;;;;1.42;1.33;;;;;;;0.30;100.00;98555.56;4358138;32;20434;-76
2022/01/28 13:11:57;;;;;;;4.70;1.48;;;;;;;0.69;100.00;98627.50;4359982;32;20040;-75